createdAt,value
2023-03-22T00:01:37.713Z,10.44
2023-03-22T00:04:04.738Z,10.54
2023-03-22T00:06:31.389Z,10.52
2023-03-22T00:08:58.309Z,10.56
2023-03-22T00:11:25.980Z,10.46
2023-03-22T00:13:53.690Z,10.59
2023-03-22T00:16:21.961Z,10.61
2023-03-22T00:18:48.687Z,10.48
2023-03-22T00:21:16.768Z,10.54
2023-03-22T00:23:44.066Z,10.31
2023-03-22T00:26:12.225Z,10.54
2023-03-22T00:28:39.316Z,10.54
2023-03-22T00:31:07.040Z,10.41
2023-03-22T00:33:33.924Z,10.09
2023-03-22T00:36:03.162Z,10.48
2023-03-22T00:38:42.417Z,10.46
2023-03-22T00:41:12.755Z,10.46
2023-03-22T00:43:40.670Z,10.43
2023-03-22T00:46:07.400Z,10.41
2023-03-22T00:48:34.660Z,10.20
2023-03-22T00:51:01.714Z,10.20
2023-03-22T00:53:29.206Z,10.13
2023-03-22T00:55:59.121Z,10.27
2023-03-22T00:58:25.767Z,10.29
2023-03-22T01:00:52.420Z,10.28
2023-03-22T01:03:19.367Z,10.25
2023-03-22T01:05:46.379Z,10.17
2023-03-22T01:08:14.896Z,10.20
2023-03-22T01:10:42.700Z,10.28
2023-03-22T01:13:10.928Z,10.27
2023-03-22T01:15:37.738Z,10.27
2023-03-22T01:18:04.523Z,10.06
2023-03-22T01:20:31.924Z,10.23
2023-03-22T01:22:58.566Z,10.23
2023-03-22T01:25:25.353Z,10.21
2023-03-22T01:27:52.731Z,10.12
2023-03-22T01:30:19.329Z,10.13
2023-03-22T01:32:45.983Z,10.01
2023-03-22T01:35:12.604Z,10.02
2023-03-22T01:37:39.211Z,10.11
2023-03-22T01:40:06.716Z,10.09
2023-03-22T01:42:33.485Z,10.00
2023-03-22T01:45:32.798Z,10.10
2023-03-22T01:48:02.964Z,9.96
2023-03-22T01:50:31.363Z,9.93
2023-03-22T01:53:00.537Z,10.06
2023-03-22T01:55:28.248Z,10.00
2023-03-22T01:57:55.578Z,9.93
2023-03-22T02:00:22.414Z,9.94
2023-03-22T02:02:51.601Z,10.07
2023-03-22T02:05:19.530Z,10.05
2023-03-22T02:07:46.175Z,10.00
2023-03-22T02:10:19.624Z,9.97
2023-03-22T02:13:27.903Z,10.00
2023-03-22T02:16:06.659Z,10.01
2023-03-22T02:18:47.984Z,10.00
2023-03-22T02:21:33.272Z,9.99
2023-03-22T02:24:24.859Z,9.99
2023-03-22T02:27:23.750Z,9.88
2023-03-22T02:30:19.704Z,9.89
2023-03-22T02:33:05.541Z,9.96
2023-03-22T02:35:44.288Z,9.96
2023-03-22T02:38:23.267Z,9.95
2023-03-22T02:40:58.711Z,9.95
2023-03-22T02:43:50.243Z,9.95
2023-03-22T02:46:27.440Z,9.94
2023-03-22T02:49:02.718Z,9.87
2023-03-22T02:51:47.257Z,9.94
2023-03-22T02:54:22.790Z,9.94
2023-03-22T02:57:16.856Z,9.88
2023-03-22T02:59:44.666Z,9.84
2023-03-22T03:02:17.348Z,9.86
2023-03-22T03:04:48.639Z,9.89
2023-03-22T03:07:21.840Z,9.80
2023-03-22T03:09:50.399Z,9.72
2023-03-22T03:12:23.534Z,9.87
2023-03-22T03:14:50.730Z,9.91
2023-03-22T03:17:36.120Z,9.91
2023-03-22T03:20:12.335Z,9.93
2023-03-22T03:23:04.222Z,9.94
2023-03-22T03:25:57.898Z,9.97
2023-03-22T03:28:43.676Z,9.93
2023-03-22T03:31:10.356Z,9.97
2023-03-22T03:33:48.405Z,10.01
2023-03-22T03:36:17.919Z,9.71
2023-03-22T03:38:49.830Z,9.91
2023-03-22T03:41:20.564Z,9.83
2023-03-22T03:43:49.059Z,10.06
2023-03-22T03:46:16.293Z,10.07
2023-03-22T03:48:47.744Z,10.01
2023-03-22T03:51:14.571Z,9.99
2023-03-22T03:53:41.609Z,10.00
2023-03-22T03:56:09.132Z,10.08
2023-03-22T03:58:35.708Z,9.90
2023-03-22T04:01:04.037Z,10.04
2023-03-22T04:03:31.421Z,10.04
2023-03-22T04:05:59.765Z,10.06
2023-03-22T04:08:26.921Z,9.96
2023-03-22T04:10:53.558Z,9.99
2023-03-22T04:13:24.624Z,10.01
2023-03-22T04:15:55.451Z,10.09
2023-03-22T04:18:22.058Z,10.04
2023-03-22T04:20:49.637Z,10.04
2023-03-22T04:23:16.869Z,10.03
2023-03-22T04:25:43.722Z,9.97
2023-03-22T04:28:10.359Z,9.96
2023-03-22T04:30:37.139Z,10.01
2023-03-22T04:33:07.950Z,10.09
2023-03-22T04:35:35.392Z,9.82
2023-03-22T04:38:02.102Z,10.02
2023-03-22T04:40:35.275Z,9.84
2023-03-22T04:43:04.027Z,10.02
2023-03-22T04:45:32.183Z,10.12
2023-03-22T04:47:59.863Z,10.12
2023-03-22T04:50:28.233Z,9.97
2023-03-22T04:52:55.028Z,10.06
2023-03-22T04:55:21.640Z,9.96
2023-03-22T04:57:48.213Z,10.04
2023-03-22T05:00:15.383Z,10.05
2023-03-22T05:02:42.013Z,10.15
2023-03-22T05:05:08.746Z,10.14
2023-03-22T05:07:35.433Z,10.18
2023-03-22T05:10:02.113Z,10.18
2023-03-22T05:12:29.139Z,10.09
2023-03-22T05:14:55.978Z,10.15
2023-03-22T05:17:22.853Z,10.06
2023-03-22T05:19:49.466Z,10.17
2023-03-22T05:22:16.178Z,10.10
2023-03-22T05:24:42.761Z,10.12
2023-03-22T05:27:10.960Z,10.22
2023-03-22T05:29:37.849Z,10.18
2023-03-22T05:32:04.766Z,9.99
2023-03-22T05:34:35.817Z,10.18
2023-03-22T05:37:03.700Z,9.81
2023-03-22T05:39:30.355Z,10.07
2023-03-22T05:41:56.955Z,10.22
2023-03-22T05:44:23.643Z,10.19
2023-03-22T05:46:50.288Z,10.07
2023-03-22T05:49:16.920Z,10.22
2023-03-22T05:51:43.659Z,10.19
2023-03-22T05:54:10.446Z,10.13
2023-03-22T05:56:37.105Z,10.03
2023-03-22T05:59:04.731Z,10.21
2023-03-22T06:01:31.435Z,10.17
2023-03-22T06:03:58.188Z,10.22
2023-03-22T06:06:24.874Z,9.88
2023-03-22T06:08:51.480Z,9.82
2023-03-22T06:11:19.366Z,10.12
2023-03-22T06:13:46.044Z,10.20
2023-03-22T06:16:12.802Z,10.16
2023-03-22T06:18:39.666Z,10.32
2023-03-22T06:21:06.440Z,10.21
2023-03-22T06:23:33.080Z,10.18
2023-03-22T06:25:59.777Z,10.33
2023-03-22T06:28:29.802Z,10.41
2023-03-22T06:30:56.944Z,10.45
2023-03-22T06:33:23.647Z,10.43
2023-03-22T06:35:50.316Z,10.38
2023-03-22T06:38:17.064Z,10.36
2023-03-22T06:40:43.757Z,10.51
2023-03-22T06:43:10.387Z,10.47
2023-03-22T06:45:37.016Z,10.57
2023-03-22T06:48:03.910Z,10.62
2023-03-22T06:50:30.918Z,10.56
2023-03-22T06:52:57.521Z,10.53
2023-03-22T06:55:24.257Z,10.79
2023-03-22T06:57:50.975Z,10.74
2023-03-22T07:00:17.978Z,10.73
2023-03-22T07:02:44.712Z,10.77
2023-03-22T07:05:11.550Z,10.75
2023-03-22T07:07:38.449Z,10.93
2023-03-22T07:10:07.858Z,11.00
2023-03-22T07:12:34.656Z,10.85
2023-03-22T07:15:01.793Z,11.10
2023-03-22T07:17:28.484Z,11.10
2023-03-22T07:19:55.287Z,11.19
2023-03-22T07:22:22.590Z,11.31
2023-03-22T07:24:56.697Z,11.17
2023-03-22T07:27:24.717Z,11.24
2023-03-22T07:29:51.559Z,11.27
2023-03-22T07:32:18.352Z,11.28
2023-03-22T07:34:45.080Z,11.19
2023-03-22T07:37:11.834Z,11.14
2023-03-22T07:39:38.569Z,11.28
2023-03-22T07:42:05.569Z,11.22
2023-03-22T07:44:32.482Z,11.10
2023-03-22T07:46:59.145Z,11.12
2023-03-22T07:49:27.186Z,11.11
2023-03-22T07:51:54.098Z,11.13
2023-03-22T07:54:33.023Z,11.07
2023-03-22T07:57:01.501Z,11.02
2023-03-22T07:59:28.258Z,11.09
2023-03-22T08:01:55.391Z,11.16
2023-03-22T08:04:22.616Z,11.10
2023-03-22T08:06:49.936Z,11.16
2023-03-22T08:09:17.036Z,11.09
2023-03-22T08:11:44.197Z,11.25
2023-03-22T08:14:10.972Z,11.42
2023-03-22T08:16:38.593Z,11.34
2023-03-22T08:19:06.100Z,11.56
2023-03-22T08:21:32.774Z,11.67
2023-03-22T08:23:59.491Z,11.60
2023-03-22T08:26:27.464Z,11.58
2023-03-22T08:28:54.073Z,11.60
2023-03-22T08:31:21.035Z,11.27
2023-03-22T08:33:48.164Z,11.48
2023-03-22T08:36:22.935Z,11.54
2023-03-22T08:38:50.531Z,11.54
2023-03-22T08:41:17.166Z,11.75
2023-03-22T08:43:43.806Z,11.76
2023-03-22T08:46:10.936Z,11.78
2023-03-22T08:48:38.462Z,11.94
2023-03-22T08:51:06.690Z,12.01
2023-03-22T08:53:33.730Z,12.00
2023-03-22T08:56:01.797Z,11.91
2023-03-22T08:58:28.566Z,12.01
2023-03-22T09:00:55.533Z,12.14
2023-03-22T09:03:24.017Z,12.14
2023-03-22T09:05:50.825Z,12.32
2023-03-22T09:08:19.603Z,12.39
2023-03-22T09:10:51.322Z,12.45
2023-03-22T09:13:18.484Z,12.68
2023-03-22T09:15:45.509Z,12.57
2023-03-22T09:18:12.305Z,12.62
2023-03-22T09:20:39.649Z,12.36
2023-03-22T09:23:06.982Z,12.48
2023-03-22T09:25:33.690Z,12.31
2023-03-22T09:28:00.367Z,12.43
2023-03-22T09:30:27.428Z,12.23
2023-03-22T09:32:54.659Z,12.40
2023-03-22T09:35:21.683Z,12.31
2023-03-22T09:37:53.151Z,12.32
2023-03-22T09:40:21.372Z,12.30
2023-03-22T09:42:54.601Z,12.36
2023-03-22T09:45:30.785Z,12.41
2023-03-22T09:47:59.721Z,12.27
2023-03-22T09:50:30.043Z,12.27
2023-03-22T09:52:57.497Z,12.47
2023-03-22T09:55:41.930Z,12.35
2023-03-22T09:58:22.199Z,12.34
2023-03-22T10:00:57.426Z,12.26
2023-03-22T10:03:53.136Z,12.29
2023-03-22T10:06:23.823Z,12.22
2023-03-22T10:09:14.380Z,12.20
2023-03-22T10:11:55.912Z,12.15
2023-03-22T10:14:38.986Z,12.09
2023-03-22T10:17:12.011Z,12.01
2023-03-22T10:19:59.642Z,11.95
2023-03-22T10:22:36.594Z,11.86
2023-03-22T10:25:08.471Z,11.83
2023-03-22T10:27:36.988Z,11.83
2023-03-22T10:30:21.199Z,11.78
2023-03-22T10:33:03.290Z,11.53
2023-03-22T10:35:32.166Z,11.81
2023-03-22T10:38:02.572Z,11.77
2023-03-22T10:40:32.746Z,11.68
2023-03-22T10:43:30.570Z,11.57
2023-03-22T10:45:58.728Z,11.50
2023-03-22T10:48:45.277Z,11.60
2023-03-22T10:51:51.318Z,11.57
2023-03-22T10:54:21.248Z,11.44
2023-03-22T10:56:47.918Z,11.49
2023-03-22T10:59:42.425Z,11.19
2023-03-22T11:02:21.183Z,11.28
2023-03-22T11:04:56.691Z,11.52
2023-03-22T11:07:40.556Z,11.50
2023-03-22T11:10:10.019Z,11.49
2023-03-22T11:12:40.872Z,11.47
2023-03-22T11:15:22.595Z,11.28
2023-03-22T11:17:49.720Z,11.42
2023-03-22T11:20:19.095Z,11.42
2023-03-22T11:22:48.276Z,11.27
2023-03-22T11:25:20.552Z,11.47
2023-03-22T11:27:53.509Z,11.45
2023-03-22T11:30:22.205Z,11.49
2023-03-22T11:32:49.508Z,11.37
2023-03-22T11:35:23.237Z,11.56
2023-03-22T11:37:52.915Z,11.47
2023-03-22T11:40:31.631Z,11.58
2023-03-22T11:43:19.493Z,11.52
2023-03-22T11:45:49.471Z,11.56
2023-03-22T11:48:21.408Z,11.58
2023-03-22T11:50:52.652Z,11.44
2023-03-22T11:53:25.679Z,11.53
2023-03-22T11:55:56.279Z,11.56
2023-03-22T11:58:28.127Z,11.62
2023-03-22T12:00:59.697Z,11.12
2023-03-22T12:03:31.186Z,11.56
2023-03-22T12:06:01.759Z,11.33
2023-03-22T12:08:44.946Z,11.44
2023-03-22T12:11:19.408Z,11.59
2023-03-22T12:13:55.105Z,11.53
2023-03-22T12:16:28.323Z,11.60
2023-03-22T12:19:14.325Z,11.44
2023-03-22T12:21:41.750Z,11.42
2023-03-22T12:24:22.959Z,11.19
2023-03-22T12:26:52.862Z,11.55
2023-03-22T12:29:21.477Z,11.45
2023-03-22T12:32:15.976Z,11.39
2023-03-22T12:34:48.127Z,11.51
2023-03-22T12:37:20.782Z,11.18
2023-03-22T12:39:53.709Z,11.47
2023-03-22T12:42:47.928Z,11.36
2023-03-22T12:45:23.716Z,11.23
2023-03-22T12:48:03.411Z,11.53
2023-03-22T12:50:43.118Z,11.51
2023-03-22T12:53:16.596Z,11.35
2023-03-22T12:55:46.022Z,11.36
2023-03-22T12:58:19.584Z,11.45
2023-03-22T13:01:00.857Z,11.32
2023-03-22T13:03:39.754Z,11.46
2023-03-22T13:06:41.332Z,11.47
2023-03-22T13:09:13.023Z,11.47
2023-03-22T13:11:39.894Z,11.24
2023-03-22T13:14:07.009Z,11.45
2023-03-22T13:17:07.388Z,11.47
2023-03-22T13:19:37.637Z,11.33
2023-03-22T13:22:19.467Z,11.44
2023-03-22T13:25:17.280Z,11.49
2023-03-22T13:27:54.584Z,11.41
2023-03-22T13:30:21.793Z,11.44
2023-03-22T13:32:56.003Z,11.22
2023-03-22T13:35:28.500Z,11.42
2023-03-22T13:38:02.935Z,11.23
2023-03-22T13:40:51.458Z,11.38
2023-03-22T13:43:25.785Z,11.36
2023-03-22T13:46:09.211Z,11.34
2023-03-22T13:48:48.643Z,11.30
2023-03-22T13:51:29.381Z,11.29
2023-03-22T13:54:02.019Z,11.31
2023-03-22T13:56:54.224Z,11.29
2023-03-22T13:59:24.256Z,10.83
2023-03-22T14:02:12.377Z,11.13
2023-03-22T14:04:44.688Z,11.17
2023-03-22T14:07:32.523Z,11.15
2023-03-22T14:10:06.697Z,11.12
2023-03-22T14:12:52.321Z,11.15
2023-03-22T14:15:23.348Z,11.18
2023-03-22T14:17:58.416Z,10.95
2023-03-22T14:20:30.769Z,11.10
